PWSweather.com
Personal Weather Stations
Station Observations
ALMOSTER
Urb. Mas Carreras, AlmosterES 43393

Urb. Mas CarrerasAlmosterES 43393

Lat: 41.1908333333, Lon: 1.1086111111

Elevation: 836.6

Station Type: Davis Vantage Pro 2

http://www.meteoalmoster.net

High Low Average
Temperature 79.0°F26.1°C 62.1°F16.7°C 70.5°F21.4°C
Dew Point 62.2°F16.8°C 50.9°F10.5°C 57.9°F14.4°C
Winds 11.0 mph 17.7 kmh Calm Calm 4.0 mph S6.4 kmh S
Wind Gusts 21.0 mph33.8 kmh -- 8.0 mph12.9 kmh
Humidity 91% 38% 67%
Pressure 29.88 in1011.9 mb 29.80 in1009.1 mb -
Precipitation 0.09 in2.3 mm - -
Hour Temp Dew Point Humidity Winds Wind Gusts Pressure Precip Precip Rate Daily Precip Total
12:00 AM 65.3°F18.5°C 62.2°F16.8°C 90% Calm Calm -- 29.86 in1011.2 mb 0.01 in0.3 mm 0.00 in0.0 mm 0.09 in2.3 mm
12:30 AM 65.1°F18.4°C 62.2°F16.8°C 90% Calm Calm -- 29.85 in1010.8 mb 0.02 in0.5 mm 0.02 in0.5 mm 0.09 in2.3 mm
01:00 AM 64.8°F18.2°C 62.1°F16.7°C 91% 1.0 mph NW1.6 kmh NW 6.0 mph9.7 kmh 29.84 in1010.5 mb 0.01 in0.3 mm 0.00 in0.0 mm 0.02 in0.5 mm
01:30 AM 64.9°F18.3°C 61.5°F16.4°C 89% Calm Calm -- 29.82 in1009.8 mb 0.00 in0.0 mm 0.00 in0.0 mm 0.02 in0.5 mm
02:00 AM 65.1°F18.4°C 61.5°F16.4°C 88% Calm Calm -- 29.81 in1009.5 mb 0.00 in0.0 mm 0.00 in0.0 mm 0.02 in0.5 mm
02:30 AM 64.8°F18.2°C 60.8°F16.0°C 87% Calm Calm -- 29.81 in1009.5 mb 0.00 in0.0 mm 0.00 in0.0 mm 0.02 in0.5 mm
03:00 AM 63.3°F17.4°C 60.1°F15.6°C 89% Calm Calm -- 29.80 in1009.1 mb 0.00 in0.0 mm 0.00 in0.0 mm 0.02 in0.5 mm
03:30 AM 63.3°F17.4°C 59.5°F15.3°C 87% Calm Calm -- 29.81 in1009.5 mb 0.00 in0.0 mm 0.00 in0.0 mm 0.02 in0.5 mm
04:00 AM 62.2°F16.8°C 58.5°F14.7°C 87% Calm Calm -- 29.80 in1009.1 mb 0.00 in0.0 mm 0.00 in0.0 mm 0.02 in0.5 mm
04:30 AM 62.1°F16.7°C 58.1°F14.5°C 87% Calm Calm -- 29.81 in1009.5 mb 0.00 in0.0 mm 0.00 in0.0 mm 0.02 in0.5 mm
05:00 AM 63.0°F17.2°C 57.9°F14.4°C 84% Calm Calm -- 29.81 in1009.5 mb 0.00 in0.0 mm 0.00 in0.0 mm 0.02 in0.5 mm
05:30 AM 63.0°F17.2°C 58.1°F14.5°C 84% 3.0 mph NW4.8 kmh NW 9.0 mph14.5 kmh 29.82 in1009.8 mb 0.00 in0.0 mm 0.00 in0.0 mm 0.02 in0.5 mm
06:00 AM 64.2°F17.9°C 57.6°F14.2°C 79% 3.0 mph WNW4.8 kmh WNW 9.0 mph14.5 kmh 29.82 in1009.8 mb 0.00 in0.0 mm 0.00 in0.0 mm 0.02 in0.5 mm
06:30 AM 65.3°F18.5°C 58.3°F14.6°C 78% 1.0 mph W1.6 kmh W 8.0 mph12.9 kmh 29.82 in1009.8 mb 0.00 in0.0 mm 0.00 in0.0 mm 0.02 in0.5 mm
07:00 AM 66.7°F19.3°C 57.0°F13.9°C 71% 4.0 mph NW6.4 kmh NW 10.0 mph16.1 kmh 29.82 in1009.8 mb 0.00 in0.0 mm 0.00 in0.0 mm 0.02 in0.5 mm
07:30 AM 69.1°F20.6°C 59.7°F15.4°C 72% Calm Calm -- 29.82 in1009.8 mb 0.00 in0.0 mm 0.00 in0.0 mm 0.02 in0.5 mm
08:00 AM 68.4°F20.2°C 59.4°F15.2°C 73% Calm Calm -- 29.83 in1010.2 mb 0.00 in0.0 mm 0.00 in0.0 mm 0.02 in0.5 mm
08:30 AM 69.6°F20.9°C 59.4°F15.2°C 70% Calm Calm -- 29.84 in1010.5 mb 0.00 in0.0 mm 0.00 in0.0 mm 0.02 in0.5 mm
09:00 AM 70.5°F21.4°C 58.3°F14.6°C 65% 2.0 mph WNW3.2 kmh WNW 7.0 mph11.3 kmh 29.84 in1010.5 mb 0.00 in0.0 mm 0.00 in0.0 mm 0.02 in0.5 mm
09:30 AM 71.2°F21.8°C 57.2°F14.0°C 61% 5.0 mph W8.0 kmh W 10.0 mph16.1 kmh 29.84 in1010.5 mb 0.00 in0.0 mm 0.00 in0.0 mm 0.02 in0.5 mm
10:00 AM 71.2°F21.8°C 57.0°F13.9°C 61% 6.0 mph WNW9.7 kmh WNW 11.0 mph17.7 kmh 29.84 in1010.5 mb 0.00 in0.0 mm 0.00 in0.0 mm 0.02 in0.5 mm
10:30 AM 73.2°F22.9°C 58.6°F14.8°C 60% 8.0 mph W12.9 kmh W 14.0 mph22.5 kmh 29.84 in1010.5 mb 0.00 in0.0 mm 0.00 in0.0 mm 0.02 in0.5 mm
11:00 AM 74.8°F23.8°C 58.1°F14.5°C 56% 8.0 mph W12.9 kmh W 17.0 mph27.4 kmh 29.84 in1010.5 mb 0.00 in0.0 mm 0.00 in0.0 mm 0.02 in0.5 mm
11:30 AM 75.4°F24.1°C 55.9°F13.3°C 51% 7.0 mph W11.3 kmh W 13.0 mph20.9 kmh 29.84 in1010.5 mb 0.00 in0.0 mm 0.00 in0.0 mm 0.02 in0.5 mm
12:00 PM 76.3°F24.6°C 54.0°F12.2°C 46% 8.0 mph W12.9 kmh W 13.0 mph20.9 kmh 29.84 in1010.5 mb 0.00 in0.0 mm 0.00 in0.0 mm 0.02 in0.5 mm
12:30 PM 77.9°F25.5°C 52.3°F11.3°C 41% 5.0 mph WSW8.0 kmh WSW 15.0 mph24.1 kmh 29.84 in1010.5 mb 0.00 in0.0 mm 0.00 in0.0 mm 0.02 in0.5 mm
01:00 PM 77.4°F25.2°C 51.1°F10.6°C 40% 9.0 mph WSW14.5 kmh WSW 15.0 mph24.1 kmh 29.84 in1010.5 mb 0.00 in0.0 mm 0.00 in0.0 mm 0.02 in0.5 mm
01:30 PM 77.9°F25.5°C 50.9°F10.5°C 39% 7.0 mph WSW11.3 kmh WSW 16.0 mph25.7 kmh 29.82 in1009.8 mb 0.00 in0.0 mm 0.00 in0.0 mm 0.02 in0.5 mm
02:00 PM 78.3°F25.7°C 52.0°F11.1°C 40% 9.0 mph WNW14.5 kmh WNW 20.0 mph32.2 kmh 29.82 in1009.8 mb 0.00 in0.0 mm 0.00 in0.0 mm 0.02 in0.5 mm
02:30 PM 78.6°F25.9°C 50.9°F10.5°C 38% 9.0 mph W14.5 kmh W 18.0 mph29.0 kmh 29.82 in1009.8 mb 0.00 in0.0 mm 0.00 in0.0 mm 0.02 in0.5 mm
03:00 PM 79.0°F26.1°C 57.6°F14.2°C 48% 9.0 mph WSW14.5 kmh WSW 17.0 mph27.4 kmh 29.82 in1009.8 mb 0.00 in0.0 mm 0.00 in0.0 mm 0.02 in0.5 mm
03:30 PM 76.5°F24.7°C 59.7°F15.4°C 56% 7.0 mph SSW11.3 kmh SSW 16.0 mph25.7 kmh 29.81 in1009.5 mb 0.00 in0.0 mm 0.00 in0.0 mm 0.02 in0.5 mm
04:00 PM 73.8°F23.2°C 60.3°F15.7°C 63% 11.0 mph SSW17.7 kmh SSW 21.0 mph33.8 kmh 29.81 in1009.5 mb 0.00 in0.0 mm 0.00 in0.0 mm 0.02 in0.5 mm
04:30 PM 74.5°F23.6°C 58.1°F14.5°C 57% 10.0 mph SSW16.1 kmh SSW 18.0 mph29.0 kmh 29.82 in1009.8 mb 0.00 in0.0 mm 0.00 in0.0 mm 0.02 in0.5 mm
05:00 PM 73.9°F23.3°C 59.2°F15.1°C 60% 11.0 mph SSW17.7 kmh SSW 21.0 mph33.8 kmh 29.82 in1009.8 mb 0.00 in0.0 mm 0.00 in0.0 mm 0.02 in0.5 mm
05:30 PM 73.2°F22.9°C 59.5°F15.3°C 62% 8.0 mph SW12.9 kmh SW 14.0 mph22.5 kmh 29.82 in1009.8 mb 0.00 in0.0 mm 0.00 in0.0 mm 0.02 in0.5 mm
06:00 PM 73.9°F23.3°C 58.1°F14.5°C 58% 7.0 mph SW11.3 kmh SW 13.0 mph20.9 kmh 29.82 in1009.8 mb 0.00 in0.0 mm 0.00 in0.0 mm 0.02 in0.5 mm
06:30 PM 74.1°F23.4°C 57.9°F14.4°C 57% 5.0 mph SW8.0 kmh SW 11.0 mph17.7 kmh 29.82 in1009.8 mb 0.00 in0.0 mm 0.00 in0.0 mm 0.02 in0.5 mm
07:00 PM 73.4°F23.0°C 59.2°F15.1°C 61% 4.0 mph SW6.4 kmh SW 12.0 mph19.3 kmh 29.83 in1010.2 mb 0.00 in0.0 mm 0.00 in0.0 mm 0.02 in0.5 mm
07:30 PM 73.0°F22.8°C 60.1°F15.6°C 64% 5.0 mph SW8.0 kmh SW 12.0 mph19.3 kmh 29.83 in1010.2 mb 0.00 in0.0 mm 0.00 in0.0 mm 0.02 in0.5 mm
08:00 PM 72.0°F22.2°C 60.8°F16.0°C 68% 1.0 mph WSW1.6 kmh WSW 6.0 mph9.7 kmh 29.84 in1010.5 mb 0.00 in0.0 mm 0.00 in0.0 mm 0.02 in0.5 mm
08:30 PM 69.6°F20.9°C 60.3°F15.7°C 72% Calm Calm -- 29.84 in1010.5 mb 0.00 in0.0 mm 0.00 in0.0 mm 0.02 in0.5 mm
09:00 PM 69.3°F20.7°C 59.0°F15.0°C 70% Calm Calm -- 29.85 in1010.8 mb 0.00 in0.0 mm 0.00 in0.0 mm 0.02 in0.5 mm
09:30 PM 69.1°F20.6°C 57.9°F14.4°C 68% Calm Calm -- 29.86 in1011.2 mb 0.00 in0.0 mm 0.00 in0.0 mm 0.02 in0.5 mm
10:00 PM 69.6°F20.9°C 58.3°F14.6°C 67% 5.0 mph NW8.0 kmh NW 10.0 mph16.1 kmh 29.87 in1011.5 mb 0.00 in0.0 mm 0.00 in0.0 mm 0.02 in0.5 mm
10:30 PM 71.2°F21.8°C 55.2°F12.9°C 57% 2.0 mph NW3.2 kmh NW 7.0 mph11.3 kmh 29.88 in1011.9 mb 0.00 in0.0 mm 0.00 in0.0 mm 0.02 in0.5 mm
11:00 PM 71.8°F22.1°C 53.6°F12.0°C 53% 5.0 mph NW8.0 kmh NW 11.0 mph17.7 kmh 29.88 in1011.9 mb 0.00 in0.0 mm 0.00 in0.0 mm 0.02 in0.5 mm
11:30 PM 70.9°F21.6°C 55.2°F12.9°C 58% Calm Calm -- 29.88 in1011.9 mb 0.00 in0.0 mm 0.00 in0.0 mm 0.02 in0.5 mm